createdAt,value
2019-03-06T00:00:51.775Z,7.00
2019-03-06T00:01:51.823Z,6.70
2019-03-06T00:02:51.755Z,7.10
2019-03-06T00:03:51.741Z,7.00
2019-03-06T00:04:51.726Z,7.00
2019-03-06T00:05:51.714Z,7.10
2019-03-06T00:06:51.704Z,7.00
2019-03-06T00:07:51.705Z,7.40
2019-03-06T00:08:51.719Z,7.10
2019-03-06T00:09:51.670Z,7.40
2019-03-06T00:10:51.661Z,7.00
2019-03-06T00:11:51.653Z,6.80
2019-03-06T00:12:51.704Z,6.90
2019-03-06T00:13:51.633Z,6.70
2019-03-06T00:14:51.641Z,6.80
2019-03-06T00:15:51.637Z,6.80
2019-03-06T00:16:51.598Z,6.50
2019-03-06T00:17:51.590Z,7.00
2019-03-06T00:18:51.666Z,6.70
2019-03-06T00:19:51.568Z,6.80
2019-03-06T00:20:51.555Z,7.20
2019-03-06T00:21:51.545Z,6.80
2019-03-06T00:22:51.533Z,6.90
2019-03-06T00:23:51.526Z,7.10
2019-03-06T00:24:51.561Z,7.00
2019-03-06T00:25:51.501Z,7.50
2019-03-06T00:26:51.486Z,7.10
2019-03-06T00:27:51.478Z,6.70
2019-03-06T00:28:51.560Z,6.20
2019-03-06T00:29:51.456Z,7.10
2019-03-06T00:30:51.449Z,7.10
2019-03-06T00:32:40.386Z,6.60
2019-03-06T00:33:40.367Z,6.90
2019-03-06T00:34:40.395Z,7.00
2019-03-06T00:35:40.349Z,6.50
2019-03-06T00:36:40.337Z,6.80
2019-03-06T00:37:40.328Z,6.90
2019-03-06T00:38:40.315Z,7.10
2019-03-06T00:39:40.342Z,6.60
2019-03-06T00:40:40.298Z,6.70
2019-03-06T00:41:40.282Z,6.60
2019-03-06T00:42:40.274Z,6.70
2019-03-06T00:43:40.260Z,6.80
2019-03-06T00:44:40.284Z,7.30
2019-03-06T00:45:40.241Z,6.80
2019-03-06T00:46:40.228Z,6.70
2019-03-06T00:47:40.214Z,6.50
2019-03-06T00:48:40.202Z,6.80
2019-03-06T00:49:40.204Z,6.70
2019-03-06T00:50:40.252Z,7.70
2019-03-06T00:51:40.178Z,7.10
2019-03-06T00:52:40.163Z,6.90
2019-03-06T00:53:40.146Z,6.90
2019-03-06T00:54:40.136Z,6.90
2019-03-06T00:55:40.131Z,6.70
2019-03-06T00:56:40.132Z,6.70
2019-03-06T00:57:40.108Z,6.90
2019-03-06T00:58:40.091Z,6.70
2019-03-06T00:59:40.086Z,6.80
2019-03-06T01:00:40.074Z,6.70
2019-03-06T01:01:40.074Z,6.40
2019-03-06T01:02:40.052Z,7.30
2019-03-06T01:03:40.036Z,6.90
2019-03-06T01:04:40.030Z,7.30
2019-03-06T01:05:40.059Z,6.90
2019-03-06T01:06:40.082Z,7.00
2019-03-06T01:07:39.994Z,6.70
2019-03-06T01:08:39.982Z,6.60
2019-03-06T01:09:39.971Z,7.00
2019-03-06T01:10:39.964Z,7.00
2019-03-06T01:11:40.022Z,6.70
2019-03-06T01:12:39.942Z,6.70
2019-03-06T01:13:39.934Z,7.10
2019-03-06T01:14:39.920Z,6.10
2019-03-06T01:15:39.912Z,6.90
2019-03-06T01:16:39.899Z,7.10
2019-03-06T01:17:39.948Z,6.50
2019-03-06T01:18:39.876Z,6.60
2019-03-06T01:19:39.859Z,6.80
2019-03-06T01:20:39.850Z,6.70
2019-03-06T01:21:39.843Z,6.30
2019-03-06T01:22:39.864Z,6.50
2019-03-06T01:23:39.821Z,6.30
2019-03-06T01:24:39.804Z,6.60
2019-03-06T01:25:39.801Z,6.90
2019-03-06T01:26:39.784Z,6.50
2019-03-06T01:27:39.787Z,7.40
2019-03-06T01:28:39.770Z,6.90
2019-03-06T01:29:39.751Z,7.10
2019-03-06T01:30:39.765Z,7.20
2019-03-06T01:31:39.728Z,6.60
2019-03-06T01:32:39.755Z,6.90
2019-03-06T01:33:39.706Z,7.30
2019-03-06T01:34:39.698Z,7.10
2019-03-06T01:35:39.684Z,7.50
2019-03-06T01:36:39.678Z,7.70
2019-03-06T01:37:39.676Z,7.70
2019-03-06T01:38:39.688Z,7.00
2019-03-06T01:39:39.640Z,6.90
2019-03-06T01:40:39.633Z,7.60
2019-03-06T01:41:39.620Z,7.70
2019-03-06T01:42:39.621Z,7.50
2019-03-06T01:43:39.612Z,7.70
2019-03-06T01:44:39.590Z,8.10
2019-03-06T01:45:39.573Z,7.20
2019-03-06T01:46:39.573Z,7.50
2019-03-06T01:47:39.593Z,7.70
2019-03-06T01:48:39.548Z,7.80
2019-03-06T01:49:39.536Z,8.00
2019-03-06T01:50:39.524Z,7.50
2019-03-06T01:51:39.512Z,7.90
2019-03-06T01:52:39.504Z,7.40
2019-03-06T01:53:39.506Z,8.30
2019-03-06T01:54:39.513Z,8.20
2019-03-06T01:55:39.469Z,8.20
2019-03-06T01:56:39.452Z,7.90
2019-03-06T01:57:39.442Z,7.90
2019-03-06T01:58:39.435Z,7.50
2019-03-06T01:59:39.459Z,8.00
2019-03-06T02:00:39.419Z,7.80
2019-03-06T02:01:39.402Z,8.40
2019-03-06T02:02:39.392Z,8.10
2019-03-06T02:03:39.401Z,8.20
2019-03-06T02:04:39.364Z,9.00
2019-03-06T02:05:39.370Z,8.80
2019-03-06T02:06:39.341Z,8.70
2019-03-06T02:07:39.406Z,7.80
2019-03-06T02:08:39.330Z,8.70
2019-03-06T02:09:39.309Z,8.30
2019-03-06T02:10:39.305Z,8.40
2019-03-06T02:11:39.288Z,8.20
2019-03-06T02:12:39.276Z,7.90
2019-03-06T02:13:39.295Z,8.70
2019-03-06T02:14:39.259Z,8.50
2019-03-06T02:15:39.249Z,8.50
2019-03-06T02:16:39.273Z,8.20
2019-03-06T02:17:39.222Z,8.90
2019-03-06T02:18:39.249Z,8.50
2019-03-06T02:19:39.205Z,8.50
2019-03-06T02:20:39.193Z,8.60
2019-03-06T02:21:39.186Z,8.90
2019-03-06T02:22:39.171Z,8.70
2019-03-06T02:23:39.196Z,8.50
2019-03-06T02:24:39.152Z,8.10
2019-03-06T02:25:39.137Z,9.00
2019-03-06T02:26:39.142Z,8.80
2019-03-06T02:27:39.115Z,8.40
2019-03-06T02:28:39.114Z,8.30
2019-03-06T02:29:39.090Z,8.20
2019-03-06T02:30:39.180Z,9.00
2019-03-06T02:31:39.072Z,8.70
2019-03-06T02:32:39.065Z,9.00
2019-03-06T02:33:40.060Z,8.60
2019-03-06T02:34:39.038Z,8.90
2019-03-06T02:35:39.042Z,9.00
2019-03-06T02:36:39.015Z,8.80
2019-03-06T02:37:39.001Z,8.70
2019-03-06T02:38:38.996Z,8.80
2019-03-06T02:39:38.995Z,9.10
2019-03-06T02:40:38.975Z,9.10
2019-03-06T02:41:38.962Z,9.40
2019-03-06T02:42:38.965Z,9.10
2019-03-06T02:43:38.988Z,8.70
2019-03-06T02:44:40.045Z,9.60
2019-03-06T02:45:38.943Z,9.00
2019-03-06T02:46:38.904Z,9.10
2019-03-06T02:47:38.897Z,9.20
2019-03-06T02:48:38.880Z,9.20
2019-03-06T02:49:38.910Z,9.10
2019-03-06T02:50:38.863Z,9.40
2019-03-06T02:51:38.849Z,8.70
2019-03-06T02:52:38.862Z,9.90
2019-03-06T02:53:38.900Z,9.50
2019-03-06T02:54:38.820Z,9.80
2019-03-06T02:55:38.843Z,9.70
2019-03-06T02:56:38.792Z,9.40
2019-03-06T02:57:38.781Z,9.20
2019-03-06T02:58:38.866Z,9.00
2019-03-06T02:59:38.779Z,9.50
2019-03-06T03:00:38.758Z,9.60
2019-03-06T03:01:38.748Z,9.20
2019-03-06T03:02:38.729Z,9.30
2019-03-06T03:03:38.714Z,9.80
2019-03-06T03:04:38.783Z,9.00
2019-03-06T03:05:38.697Z,10.10
2019-03-06T03:06:38.691Z,9.80
2019-03-06T03:07:38.677Z,9.00
2019-03-06T03:08:38.664Z,9.30
2019-03-06T03:09:38.663Z,9.40
2019-03-06T03:10:38.648Z,10.00
2019-03-06T03:11:38.666Z,9.60
2019-03-06T03:12:38.619Z,9.40
2019-03-06T03:13:38.621Z,8.60
2019-03-06T03:14:38.633Z,9.50
2019-03-06T03:15:38.584Z,9.50
2019-03-06T03:16:38.612Z,8.80
2019-03-06T03:17:38.562Z,10.00
2019-03-06T03:18:38.565Z,10.10
2019-03-06T03:19:38.562Z,9.70
2019-03-06T03:20:38.531Z,9.30
2019-03-06T03:21:38.556Z,9.80
2019-03-06T03:22:38.509Z,9.00
2019-03-06T03:23:38.499Z,9.60
2019-03-06T03:24:38.547Z,10.00
2019-03-06T03:25:38.474Z,9.10
2019-03-06T03:26:38.479Z,9.60
2019-03-06T03:27:38.456Z,9.50
2019-03-06T03:28:38.444Z,9.40
2019-03-06T03:29:38.434Z,9.70
2019-03-06T03:30:38.455Z,9.60
2019-03-06T03:31:38.412Z,9.90
2019-03-06T03:32:38.438Z,9.50
2019-03-06T03:33:38.420Z,9.20
2019-03-06T03:34:38.379Z,10.40
2019-03-06T03:35:38.363Z,9.60
2019-03-06T03:36:38.355Z,9.80
2019-03-06T03:37:38.340Z,9.80
2019-03-06T03:38:38.368Z,9.40
2019-03-06T03:39:38.318Z,9.80
2019-03-06T03:40:38.330Z,9.70
2019-03-06T03:41:38.300Z,9.40
2019-03-06T03:42:38.292Z,9.50
2019-03-06T03:43:38.317Z,9.80
2019-03-06T03:44:38.263Z,9.60
2019-03-06T03:45:38.257Z,10.00
2019-03-06T03:46:38.239Z,9.40
2019-03-06T03:47:38.231Z,9.20
2019-03-06T03:48:38.220Z,8.50
2019-03-06T03:49:38.249Z,10.30
2019-03-06T03:50:38.204Z,9.20
2019-03-06T03:51:38.191Z,8.90
2019-03-06T03:52:38.179Z,9.00
2019-03-06T03:53:38.166Z,9.00
2019-03-06T03:54:38.203Z,8.50
2019-03-06T03:55:38.231Z,10.00
2019-03-06T03:56:38.146Z,8.90
2019-03-06T03:57:38.166Z,9.70
2019-03-06T03:58:38.119Z,9.30
2019-03-06T03:59:38.120Z,9.60
2019-03-06T04:00:38.101Z,9.90
2019-03-06T04:01:38.076Z,9.70
2019-03-06T04:02:38.121Z,10.10
2019-03-06T04:03:38.057Z,9.70
2019-03-06T04:04:38.049Z,9.80
2019-03-06T04:05:38.047Z,9.20
2019-03-06T04:06:38.023Z,9.20
2019-03-06T04:07:38.068Z,8.80
2019-03-06T04:08:38.004Z,9.60
2019-03-06T04:09:37.988Z,9.40
2019-03-06T04:10:37.998Z,9.60
2019-03-06T04:11:37.971Z,9.30
2019-03-06T04:12:37.975Z,10.50
2019-03-06T04:13:38.030Z,9.40
2019-03-06T04:14:38.035Z,9.50
2019-03-06T04:15:37.925Z,9.70
2019-03-06T04:16:37.956Z,9.60
2019-03-06T04:17:37.904Z,9.90
2019-03-06T04:18:37.895Z,9.10
2019-03-06T04:19:37.881Z,9.40
2019-03-06T04:20:37.864Z,9.50
2019-03-06T04:21:37.858Z,9.60
2019-03-06T04:22:37.853Z,10.00
2019-03-06T04:23:37.843Z,10.10
2019-03-06T04:24:37.821Z,9.50
2019-03-06T04:25:37.808Z,9.30
2019-03-06T04:26:37.803Z,9.80
2019-03-06T04:27:37.861Z,9.70
2019-03-06T04:28:37.781Z,9.70
2019-03-06T04:29:37.764Z,9.10
2019-03-06T04:30:37.758Z,10.50
2019-03-06T04:31:37.742Z,9.20
2019-03-06T04:32:37.734Z,10.00
2019-03-06T04:33:37.773Z,10.50
2019-03-06T04:34:37.716Z,10.30
2019-03-06T04:35:37.698Z,9.90
2019-03-06T04:36:37.689Z,10.40
2019-03-06T04:37:37.674Z,10.00
2019-03-06T04:38:37.671Z,10.40
2019-03-06T04:39:37.691Z,9.90
2019-03-06T04:40:37.707Z,10.60
2019-03-06T04:41:37.632Z,10.50
2019-03-06T04:42:37.633Z,10.30
2019-03-06T04:43:37.610Z,9.80
2019-03-06T04:44:37.627Z,10.00
2019-03-06T04:45:37.593Z,10.00
2019-03-06T04:46:37.581Z,9.50
2019-03-06T04:47:37.564Z,9.60
2019-03-06T04:48:37.555Z,8.90
2019-03-06T04:49:37.563Z,9.60
2019-03-06T04:50:37.573Z,9.50
2019-03-06T04:51:37.522Z,9.60
2019-03-06T04:52:37.514Z,9.90
2019-03-06T04:53:37.506Z,9.60
2019-03-06T04:54:37.492Z,9.70
2019-03-06T04:55:37.502Z,10.30
2019-03-06T04:56:37.473Z,9.90
2019-03-06T04:57:37.456Z,9.80
2019-03-06T04:58:37.449Z,9.90
2019-03-06T04:59:37.438Z,10.40
2019-03-06T05:00:37.487Z,9.20
2019-03-06T05:01:37.416Z,10.60
2019-03-06T05:02:37.405Z,9.60
2019-03-06T05:03:37.389Z,10.20
2019-03-06T05:04:37.378Z,10.20
2019-03-06T05:05:37.422Z,9.90
2019-03-06T05:06:37.360Z,10.40
2019-03-06T05:07:37.343Z,10.00
2019-03-06T05:08:37.334Z,10.00
2019-03-06T05:09:37.327Z,9.80
2019-03-06T05:10:37.315Z,10.40
2019-03-06T05:11:37.355Z,10.10
2019-03-06T05:12:37.290Z,9.50
2019-03-06T05:13:37.284Z,10.10
2019-03-06T05:14:37.274Z,9.90
2019-03-06T05:15:37.261Z,10.30
2019-03-06T05:16:37.251Z,10.10
2019-03-06T05:17:37.272Z,10.60
2019-03-06T05:18:37.223Z,10.30
2019-03-06T05:19:37.217Z,9.80
2019-03-06T05:20:37.206Z,10.00
2019-03-06T05:21:37.210Z,10.90
2019-03-06T05:22:37.186Z,9.90
2019-03-06T05:23:37.169Z,9.80
2019-03-06T05:24:37.159Z,9.70
2019-03-06T05:25:37.152Z,10.00
2019-03-06T05:26:37.175Z,9.70
2019-03-06T05:27:37.137Z,10.30
2019-03-06T05:28:37.139Z,10.00
2019-03-06T05:29:37.106Z,10.10
2019-03-06T05:30:37.093Z,10.00
2019-03-06T05:31:37.082Z,9.80
2019-03-06T05:32:37.076Z,9.90
2019-03-06T05:33:37.105Z,9.90
2019-03-06T05:34:37.047Z,10.00
2019-03-06T05:35:37.039Z,10.10
2019-03-06T05:36:37.026Z,10.50
2019-03-06T05:37:37.015Z,10.70
2019-03-06T05:38:37.007Z,11.20
2019-03-06T05:39:37.029Z,11.10
2019-03-06T05:40:36.990Z,11.10
2019-03-06T05:41:36.976Z,11.20
2019-03-06T05:42:37.033Z,11.10
2019-03-06T05:43:36.949Z,10.80
2019-03-06T05:44:36.942Z,11.30
2019-03-06T05:45:36.934Z,16.80
2019-03-06T05:46:36.925Z,13.40
2019-03-06T05:47:36.907Z,18.90
2019-03-06T05:48:36.921Z,12.90
2019-03-06T05:49:36.886Z,12.60
2019-03-06T05:50:36.874Z,11.20
2019-03-06T05:51:36.866Z,12.20
2019-03-06T05:52:36.853Z,11.80
2019-03-06T05:53:36.889Z,11.80
2019-03-06T05:54:36.826Z,11.20
2019-03-06T05:55:36.818Z,10.90
2019-03-06T05:56:36.810Z,11.40
2019-03-06T05:57:36.796Z,10.60
2019-03-06T05:58:36.832Z,12.10
2019-03-06T05:59:36.773Z,11.00
2019-03-06T06:00:36.763Z,11.80
2019-03-06T06:01:36.754Z,10.80
2019-03-06T06:02:36.748Z,11.70
2019-03-06T06:03:36.797Z,11.10
2019-03-06T06:04:36.715Z,11.70
2019-03-06T06:05:36.702Z,11.50
2019-03-06T06:06:36.699Z,12.90
2019-03-06T06:07:36.686Z,19.60
2019-03-06T06:08:36.671Z,12.60
2019-03-06T06:09:36.685Z,13.30
2019-03-06T06:10:36.647Z,11.60
2019-03-06T06:11:36.707Z,11.40
2019-03-06T06:12:36.633Z,11.40
2019-03-06T06:13:36.624Z,11.60
2019-03-06T06:14:36.602Z,11.00
2019-03-06T06:15:36.593Z,11.20
2019-03-06T06:16:36.581Z,11.00
2019-03-06T06:17:36.584Z,11.80
2019-03-06T06:18:36.564Z,11.30
2019-03-06T06:19:36.547Z,11.50
2019-03-06T06:20:36.551Z,11.60
2019-03-06T06:21:36.529Z,11.40
2019-03-06T06:22:36.519Z,10.90
2019-03-06T06:23:36.502Z,11.30
2019-03-06T06:24:36.502Z,11.00
2019-03-06T06:25:36.518Z,11.20
2019-03-06T06:26:36.468Z,12.00
2019-03-06T06:27:36.496Z,11.50
2019-03-06T06:28:36.452Z,11.20
2019-03-06T06:29:36.444Z,11.50
2019-03-06T06:30:36.426Z,11.20
2019-03-06T06:31:36.416Z,10.90
2019-03-06T06:32:36.459Z,12.30
2019-03-06T06:33:36.392Z,11.10
2019-03-06T06:34:36.387Z,11.10
2019-03-06T06:35:36.408Z,11.20
2019-03-06T06:36:36.365Z,12.10
2019-03-06T06:37:36.386Z,10.90
2019-03-06T06:38:37.496Z,10.80
2019-03-06T06:39:36.332Z,11.00
2019-03-06T06:40:36.322Z,12.00
2019-03-06T06:41:36.306Z,16.30
2019-03-06T06:42:36.295Z,18.60
2019-03-06T06:43:36.323Z,17.00
2019-03-06T06:44:36.278Z,13.10
2019-03-06T06:45:36.261Z,10.80
2019-03-06T06:46:36.255Z,10.90
2019-03-06T06:47:36.240Z,11.60
2019-03-06T06:48:36.272Z,11.20
2019-03-06T06:49:36.221Z,11.10
2019-03-06T06:50:36.209Z,11.30
2019-03-06T06:51:36.196Z,11.40
2019-03-06T06:52:36.184Z,11.40
2019-03-06T06:53:36.174Z,11.00
2019-03-06T06:54:36.191Z,11.80
2019-03-06T06:55:36.156Z,11.90
2019-03-06T06:56:36.141Z,11.20
2019-03-06T06:57:36.135Z,11.30
2019-03-06T06:58:36.116Z,12.00
2019-03-06T06:59:36.140Z,11.30
2019-03-06T07:00:36.120Z,11.10
2019-03-06T07:01:36.095Z,11.40
2019-03-06T07:02:36.078Z,10.90
2019-03-06T07:03:36.063Z,11.70
2019-03-06T07:04:36.079Z,12.00
2019-03-06T07:05:36.047Z,11.60
2019-03-06T07:06:36.035Z,11.30
2019-03-06T07:07:36.019Z,11.60
2019-03-06T07:08:36.014Z,10.70
2019-03-06T07:09:36.034Z,10.90
2019-03-06T07:10:35.986Z,10.90
2019-03-06T07:11:35.980Z,10.90
2019-03-06T07:12:35.969Z,10.90
2019-03-06T07:13:36.001Z,11.00
2019-03-06T07:14:36.014Z,11.80
2019-03-06T07:15:35.943Z,11.20
2019-03-06T07:16:35.925Z,11.10
2019-03-06T07:17:35.915Z,10.80
2019-03-06T07:18:35.896Z,10.50
2019-03-06T07:19:35.900Z,10.80
2019-03-06T07:20:35.896Z,11.20
2019-03-06T07:21:35.870Z,11.00
2019-03-06T07:22:35.856Z,11.40
2019-03-06T07:23:35.848Z,11.20
2019-03-06T07:24:35.837Z,10.70
2019-03-06T07:25:35.871Z,11.10
2019-03-06T07:26:35.863Z,10.50
2019-03-06T07:27:35.802Z,11.00
2019-03-06T07:28:35.794Z,10.70
2019-03-06T07:29:35.780Z,10.60
2019-03-06T07:30:35.772Z,10.80
2019-03-06T07:31:35.774Z,10.90
2019-03-06T07:32:35.743Z,11.00
2019-03-06T07:33:35.732Z,10.60
2019-03-06T07:34:35.719Z,10.70
2019-03-06T07:35:35.717Z,11.40
2019-03-06T07:36:35.715Z,10.70
2019-03-06T07:37:35.709Z,10.70
2019-03-06T07:38:35.677Z,10.10
2019-03-06T07:39:35.672Z,9.90
2019-03-06T07:40:35.662Z,9.90
2019-03-06T07:41:35.657Z,10.50
2019-03-06T07:42:35.644Z,10.20
2019-03-06T07:43:35.624Z,10.10
2019-03-06T07:44:35.613Z,9.70
2019-03-06T07:45:35.633Z,10.50
2019-03-06T07:46:35.603Z,9.90
2019-03-06T07:47:35.597Z,9.70
2019-03-06T07:48:35.571Z,10.30
2019-03-06T07:49:44.726Z,9.80
2019-03-06T07:50:36.543Z,9.70
2019-03-06T07:51:35.536Z,9.60
2019-03-06T07:52:35.550Z,9.10
2019-03-06T07:53:35.512Z,9.20
2019-03-06T07:54:35.523Z,10.00
2019-03-06T07:55:35.505Z,9.30
2019-03-06T07:56:35.483Z,9.80
2019-03-06T07:57:35.472Z,9.70
2019-03-06T07:58:35.467Z,10.10
2019-03-06T07:59:35.460Z,8.30
2019-03-06T08:00:35.474Z,9.10
2019-03-06T08:01:35.439Z,8.60
2019-03-06T08:02:35.415Z,7.90
2019-03-06T08:03:35.409Z,8.90
2019-03-06T08:04:35.391Z,9.40
2019-03-06T08:05:35.394Z,9.80
2019-03-06T08:06:35.377Z,8.80
2019-03-06T08:07:35.364Z,9.60
2019-03-06T08:08:35.349Z,7.80
2019-03-06T08:09:35.375Z,8.30
2019-03-06T08:10:35.658Z,8.40
2019-03-06T08:11:36.141Z,8.30
2019-03-06T08:12:35.305Z,8.50
2019-03-06T08:13:35.293Z,8.10
2019-03-06T08:14:35.279Z,7.80
2019-03-06T08:15:35.310Z,8.00
2019-03-06T08:16:35.259Z,8.60
2019-03-06T08:17:35.265Z,7.80
2019-03-06T08:18:35.239Z,7.60
2019-03-06T08:19:35.238Z,7.60
2019-03-06T08:20:35.214Z,8.10
2019-03-06T08:21:35.243Z,9.40
2019-03-06T08:22:35.195Z,10.80
2019-03-06T08:23:35.192Z,8.00
2019-03-06T08:24:35.176Z,7.70
2019-03-06T08:25:35.158Z,8.30
2019-03-06T08:26:35.187Z,8.10
2019-03-06T08:27:35.137Z,7.90
2019-03-06T08:28:35.127Z,7.70
2019-03-06T08:29:35.123Z,7.90
2019-03-06T08:30:35.109Z,8.00
2019-03-06T08:31:35.131Z,7.90
2019-03-06T08:32:35.122Z,7.70
2019-03-06T08:33:35.077Z,8.10
2019-03-06T08:34:35.071Z,8.00
2019-03-06T08:35:35.058Z,7.50
2019-03-06T08:36:35.077Z,7.90
2019-03-06T08:37:35.035Z,8.20
2019-03-06T08:38:35.017Z,7.00
2019-03-06T08:39:35.009Z,7.60
2019-03-06T08:40:34.992Z,6.60
2019-03-06T08:41:34.986Z,7.60
2019-03-06T08:42:35.006Z,7.30
2019-03-06T08:43:34.962Z,7.30
2019-03-06T08:44:34.955Z,7.00
2019-03-06T08:45:34.941Z,7.60
2019-03-06T08:46:34.933Z,7.30
2019-03-06T08:47:34.941Z,7.70
2019-03-06T08:48:34.917Z,8.00
2019-03-06T08:49:34.904Z,7.60
2019-03-06T08:50:34.880Z,7.30
2019-03-06T08:51:34.874Z,7.00
2019-03-06T08:52:34.897Z,7.20
2019-03-06T08:53:34.887Z,7.00
2019-03-06T08:54:34.837Z,7.50
2019-03-06T08:55:34.827Z,7.00
2019-03-06T08:56:34.817Z,7.10
2019-03-06T08:57:34.810Z,7.20
2019-03-06T08:58:34.847Z,6.80
2019-03-06T08:59:34.781Z,6.70
2019-03-06T09:00:34.775Z,7.30
2019-03-06T09:01:34.767Z,7.00
2019-03-06T09:02:34.778Z,7.10
2019-03-06T09:03:34.812Z,6.80
2019-03-06T09:04:34.736Z,7.10
2019-03-06T09:05:34.721Z,7.10
2019-03-06T09:06:34.709Z,6.60
2019-03-06T09:07:34.701Z,7.20
2019-03-06T09:08:34.688Z,6.90
2019-03-06T09:09:34.710Z,7.10
2019-03-06T09:10:34.665Z,6.80
2019-03-06T09:11:34.655Z,6.90
2019-03-06T09:12:34.645Z,7.10
2019-03-06T09:13:34.633Z,7.10
2019-03-06T09:14:34.689Z,6.90
2019-03-06T09:15:34.608Z,6.50
2019-03-06T09:16:34.595Z,7.00
2019-03-06T09:17:34.591Z,6.90
2019-03-06T09:18:34.575Z,7.20
2019-03-06T09:19:34.564Z,7.30
2019-03-06T09:20:37.361Z,6.20
2019-03-06T09:21:34.538Z,6.40
2019-03-06T09:22:34.540Z,6.40
2019-03-06T09:23:34.516Z,6.40
2019-03-06T09:24:34.558Z,7.10
2019-03-06T09:25:34.498Z,6.30
2019-03-06T09:26:34.483Z,6.10
2019-03-06T09:27:34.483Z,6.20
2019-03-06T09:28:34.472Z,6.40
2019-03-06T09:29:34.452Z,6.50
2019-03-06T09:30:34.492Z,6.30
2019-03-06T09:31:34.431Z,6.40
2019-03-06T09:32:34.428Z,6.40
2019-03-06T09:33:34.414Z,6.30
2019-03-06T09:34:34.399Z,6.20
2019-03-06T09:35:34.420Z,6.10
2019-03-06T09:36:34.377Z,6.00
2019-03-06T09:37:34.385Z,6.10
2019-03-06T09:38:34.349Z,6.30
2019-03-06T09:39:34.351Z,6.00
2019-03-06T09:40:34.364Z,6.00
2019-03-06T09:41:34.325Z,6.60
2019-03-06T09:42:34.314Z,6.60
2019-03-06T09:43:34.295Z,5.70
2019-03-06T09:44:34.284Z,6.30
2019-03-06T09:45:34.272Z,5.90
2019-03-06T09:46:34.301Z,6.60
2019-03-06T09:47:34.258Z,5.60
2019-03-06T09:48:34.247Z,5.20
2019-03-06T09:49:34.237Z,5.30
2019-03-06T09:50:34.229Z,4.70
2019-03-06T09:51:34.216Z,4.90
2019-03-06T09:52:34.269Z,5.00
2019-03-06T09:53:34.190Z,4.80
2019-03-06T09:54:34.175Z,5.40
2019-03-06T09:55:34.164Z,5.90
2019-03-06T09:56:34.162Z,5.50
2019-03-06T09:57:34.138Z,5.10
2019-03-06T09:58:34.147Z,5.00
2019-03-06T09:59:34.123Z,4.80
2019-03-06T10:00:34.105Z,5.10
2019-03-06T10:01:34.167Z,5.50
2019-03-06T10:02:34.084Z,5.20
2019-03-06T10:03:34.077Z,5.50
2019-03-06T10:04:34.061Z,4.90
2019-03-06T10:05:34.049Z,4.60
2019-03-06T10:06:34.044Z,4.80
2019-03-06T10:07:34.069Z,5.00
2019-03-06T10:08:34.018Z,5.10
2019-03-06T10:09:34.005Z,4.80
2019-03-06T10:10:33.995Z,5.30
2019-03-06T10:11:33.989Z,5.30
2019-03-06T10:12:34.011Z,4.80
2019-03-06T10:13:33.972Z,5.20
2019-03-06T10:14:33.967Z,5.40
2019-03-06T10:15:33.944Z,4.90
2019-03-06T10:16:33.935Z,5.20
2019-03-06T10:17:33.915Z,5.40
2019-03-06T10:18:33.943Z,5.20
2019-03-06T10:19:33.895Z,5.00
2019-03-06T10:20:33.937Z,5.20
2019-03-06T10:21:33.871Z,5.20
2019-03-06T10:22:33.864Z,5.70
2019-03-06T10:23:33.864Z,5.00
2019-03-06T10:24:33.885Z,4.80
2019-03-06T10:25:33.890Z,5.20
2019-03-06T10:26:33.818Z,5.20
2019-03-06T10:27:33.813Z,5.10
2019-03-06T10:28:33.798Z,5.40
2019-03-06T10:29:33.845Z,5.30
2019-03-06T10:30:33.775Z,5.30
2019-03-06T10:31:33.764Z,5.50
2019-03-06T10:32:33.754Z,5.50
2019-03-06T10:33:33.737Z,5.40
2019-03-06T10:34:33.731Z,5.00
2019-03-06T10:35:33.768Z,5.50
2019-03-06T10:36:33.712Z,5.20
2019-03-06T10:37:33.693Z,5.20
2019-03-06T10:38:33.686Z,5.10
2019-03-06T10:39:33.680Z,4.30
2019-03-06T10:40:33.721Z,5.00
2019-03-06T10:41:33.654Z,4.50
2019-03-06T10:42:33.638Z,4.10
2019-03-06T10:43:33.652Z,4.90
2019-03-06T10:44:33.622Z,4.50
2019-03-06T10:45:41.345Z,5.00
2019-03-06T10:46:34.602Z,4.40
2019-03-06T10:47:33.585Z,4.60
2019-03-06T10:48:33.588Z,5.40
2019-03-06T10:49:33.565Z,4.70
2019-03-06T10:50:33.585Z,5.20
2019-03-06T10:51:33.538Z,5.00
2019-03-06T10:52:33.532Z,4.70
2019-03-06T10:53:41.132Z,4.70
2019-03-06T10:54:37.879Z,4.80
2019-03-06T10:55:34.529Z,4.30
2019-03-06T10:56:33.539Z,4.50
2019-03-06T10:57:33.480Z,4.20
2019-03-06T10:58:33.464Z,4.60
2019-03-06T10:59:33.449Z,4.80
2019-03-06T11:00:33.440Z,4.60
2019-03-06T11:01:33.428Z,4.30
2019-03-06T11:02:33.579Z,4.70
2019-03-06T11:03:33.410Z,4.70
2019-03-06T11:04:33.399Z,4.70
2019-03-06T11:05:33.389Z,4.30
2019-03-06T11:06:33.378Z,4.60
2019-03-06T11:07:33.368Z,4.10
2019-03-06T11:08:33.425Z,4.20
2019-03-06T11:09:33.343Z,4.20
2019-03-06T11:10:33.339Z,4.20
2019-03-06T11:11:33.324Z,4.00
2019-03-06T11:12:33.343Z,4.00
2019-03-06T11:13:33.297Z,3.60
2019-03-06T11:14:33.287Z,4.10
2019-03-06T11:15:33.270Z,3.80
2019-03-06T11:16:34.920Z,3.90
2019-03-06T11:17:33.292Z,4.20
2019-03-06T11:18:33.248Z,4.00
2019-03-06T11:19:33.231Z,3.90
2019-03-06T11:20:33.224Z,4.30
2019-03-06T11:21:33.219Z,3.90
2019-03-06T11:22:33.194Z,4.60
2019-03-06T11:23:33.200Z,4.60
2019-03-06T11:24:33.207Z,4.40
2019-03-06T11:25:33.162Z,3.90
2019-03-06T11:26:33.153Z,4.40
2019-03-06T11:27:33.140Z,4.00
2019-03-06T11:28:33.130Z,4.50
2019-03-06T11:29:33.133Z,4.30
2019-03-06T11:30:33.107Z,3.90
2019-03-06T11:31:33.093Z,3.80
2019-03-06T11:32:33.081Z,4.00
2019-03-06T11:33:33.120Z,4.00
2019-03-06T11:34:33.157Z,4.00
2019-03-06T11:35:34.184Z,3.20
2019-03-06T11:36:33.043Z,3.60
2019-03-06T11:37:33.029Z,3.60
2019-03-06T11:38:33.018Z,3.70
2019-03-06T11:39:33.016Z,3.70
2019-03-06T11:40:33.029Z,4.30
2019-03-06T11:41:32.980Z,3.80
2019-03-06T11:42:32.971Z,3.70
2019-03-06T11:43:32.960Z,3.30
2019-03-06T11:44:32.952Z,3.30
2019-03-06T11:45:33.036Z,3.60
2019-03-06T11:46:32.926Z,3.50
2019-03-06T11:47:32.930Z,3.00
2019-03-06T11:48:32.908Z,3.40
2019-03-06T11:49:32.897Z,3.90
2019-03-06T11:50:40.673Z,4.10
2019-03-06T11:51:33.911Z,3.70
2019-03-06T11:52:34.871Z,4.00
2019-03-06T11:53:33.033Z,3.90
2019-03-06T11:54:32.853Z,3.90
2019-03-06T11:55:32.862Z,3.60
2019-03-06T11:56:32.889Z,3.70
2019-03-06T11:57:33.451Z,3.60
2019-03-06T11:58:32.798Z,3.60
2019-03-06T11:59:32.781Z,3.60
2019-03-06T12:00:32.818Z,3.50
2019-03-06T12:01:32.831Z,3.40
2019-03-06T12:02:32.754Z,3.40
2019-03-06T12:03:32.737Z,3.50
2019-03-06T12:04:32.728Z,3.50
2019-03-06T12:05:32.723Z,3.60
2019-03-06T12:06:32.705Z,3.20
2019-03-06T12:07:32.747Z,3.10
2019-03-06T12:08:32.688Z,2.90
2019-03-06T12:09:32.669Z,3.20
2019-03-06T12:10:32.667Z,3.10
2019-03-06T12:11:32.650Z,3.40
2019-03-06T12:12:32.691Z,3.60
2019-03-06T12:13:32.628Z,3.20
2019-03-06T12:14:33.162Z,3.10
2019-03-06T12:15:32.607Z,2.90
2019-03-06T12:16:41.470Z,3.20
2019-03-06T12:17:33.594Z,3.80
2019-03-06T12:18:34.098Z,3.70
2019-03-06T12:19:32.556Z,3.30
2019-03-06T12:20:32.549Z,3.10
2019-03-06T12:21:32.539Z,3.10
2019-03-06T12:22:32.531Z,3.00
2019-03-06T12:23:32.555Z,3.30
2019-03-06T12:24:32.504Z,3.20
2019-03-06T12:25:32.495Z,3.20
2019-03-06T12:26:32.479Z,3.80
2019-03-06T12:27:32.636Z,3.30
2019-03-06T12:28:32.457Z,3.60
2019-03-06T12:29:32.450Z,4.10
2019-03-06T12:30:32.439Z,3.60
2019-03-06T12:31:32.428Z,3.20
2019-03-06T12:32:32.420Z,3.40
2019-03-06T12:33:32.457Z,3.10
2019-03-06T12:34:32.391Z,2.80
2019-03-06T12:35:32.451Z,3.30
2019-03-06T12:36:32.371Z,3.10
2019-03-06T12:37:32.363Z,3.20
2019-03-06T12:38:32.352Z,2.90
2019-03-06T12:39:32.342Z,2.80
2019-03-06T12:40:32.325Z,2.90
2019-03-06T12:41:32.326Z,2.50
2019-03-06T12:42:32.302Z,2.90
2019-03-06T12:43:32.301Z,2.90
2019-03-06T12:44:32.283Z,2.70
2019-03-06T12:45:32.274Z,2.80
2019-03-06T12:46:32.331Z,3.10
2019-03-06T12:47:32.249Z,3.40
2019-03-06T12:48:32.244Z,3.20
2019-03-06T12:49:32.226Z,2.90
2019-03-06T12:50:32.213Z,2.70
2019-03-06T12:51:32.277Z,3.00
2019-03-06T12:52:32.199Z,3.10
2019-03-06T12:53:32.189Z,3.00
2019-03-06T12:54:32.193Z,2.90
2019-03-06T12:55:32.160Z,3.00
2019-03-06T12:56:32.153Z,2.60
2019-03-06T12:57:32.191Z,2.60
2019-03-06T12:58:32.131Z,2.70
2019-03-06T12:59:32.169Z,2.70
2019-03-06T13:00:32.111Z,2.90
2019-03-06T13:01:32.099Z,2.30
2019-03-06T13:02:32.122Z,2.70
2019-03-06T13:03:32.078Z,2.10
2019-03-06T13:04:32.060Z,2.20
2019-03-06T13:05:32.050Z,2.10
2019-03-06T13:06:32.057Z,2.40
2019-03-06T13:07:32.025Z,2.30
2019-03-06T13:08:32.062Z,2.40
2019-03-06T13:09:32.012Z,2.10
2019-03-06T13:10:31.992Z,2.20
2019-03-06T13:11:32.018Z,2.30
2019-03-06T13:12:31.976Z,2.20
2019-03-06T13:13:35.464Z,2.20